CMP102 MPTO-MGGT
Flight info
| Callsign | CMP102 |
|---|---|
| Flight time | N/A |
| Altitude | 35000 |
| Route | SIMAN3B SIMAN DCT VUMAN DCT BITOR A317 CAT G436 KAPAN KAPAN2C |
| Aircraft | B738/M-SDE2E3FGHIRWXY/LB1 |
Departure
| Time | N/A |
|---|---|
| Airport | Tocumen International Airport (MPTO) |
Arrival
| Time | 2026-04-25 20:54 |
|---|---|
| Airport | La Aurora International Airport (MGGT) |
| Time | Latitude | Longitude | Altitude | Speed | Heading |
|---|---|---|---|---|---|
| 2026-04-25 20:33 | 13.67078 | -89.38028 | 34972 ft | 435 kts | 308° |
| 2026-04-25 20:33 | 13.68947 | -89.40395 | 34969 ft | 434 kts | 308° |
| 2026-04-25 20:33 | 13.71893 | -89.44132 | 34966 ft | 435 kts | 308° |
| 2026-04-25 20:34 | 13.76673 | -89.50197 | 34076 ft | 434 kts | 308° |
| 2026-04-25 20:34 | 13.78573 | -89.52607 | 33374 ft | 433 kts | 308° |
| 2026-04-25 20:34 | 13.80461 | -89.55000 | 32892 ft | 427 kts | 308° |
| 2026-04-25 20:35 | 13.82305 | -89.57337 | 32406 ft | 423 kts | 308° |
| 2026-04-25 20:35 | 13.84144 | -89.59669 | 31888 ft | 419 kts | 308° |
| 2026-04-25 20:35 | 13.85964 | -89.61979 | 31353 ft | 416 kts | 309° |
| 2026-04-25 20:35 | 13.87771 | -89.64271 | 30822 ft | 413 kts | 309° |
| 2026-04-25 20:36 | 13.89489 | -89.66455 | 30316 ft | 410 kts | 308° |
| 2026-04-25 20:36 | 13.91300 | -89.68761 | 29784 ft | 407 kts | 308° |
| 2026-04-25 20:36 | 13.93093 | -89.71036 | 29249 ft | 404 kts | 309° |
| 2026-04-25 20:36 | 13.94845 | -89.73261 | 28738 ft | 401 kts | 309° |
| 2026-04-25 20:37 | 13.96586 | -89.75476 | 28227 ft | 398 kts | 309° |
| 2026-04-25 20:37 | 13.98340 | -89.77712 | 27708 ft | 395 kts | 309° |
| 2026-04-25 20:37 | 14.00052 | -89.79893 | 27194 ft | 392 kts | 309° |
| 2026-04-25 20:37 | 14.01753 | -89.82061 | 26681 ft | 389 kts | 309° |
| 2026-04-25 20:38 | 14.03472 | -89.84254 | 26159 ft | 387 kts | 309° |
| 2026-04-25 20:38 | 14.05142 | -89.86401 | 25654 ft | 384 kts | 308° |
| 2026-04-25 20:38 | 14.06688 | -89.88615 | 25151 ft | 382 kts | 305° |
| 2026-04-25 20:38 | 14.08118 | -89.90891 | 24654 ft | 379 kts | 303° |
| 2026-04-25 20:39 | 14.09500 | -89.93192 | 24151 ft | 376 kts | 303° |
| 2026-04-25 20:39 | 14.10854 | -89.95472 | 23652 ft | 374 kts | 303° |
| 2026-04-25 20:39 | 14.12191 | -89.97717 | 23160 ft | 371 kts | 303° |
| 2026-04-25 20:39 | 14.13082 | -89.99202 | 22839 ft | 369 kts | 303° |
| 2026-04-25 20:40 | 14.14889 | -90.02193 | 22195 ft | 365 kts | 303° |
| 2026-04-25 20:40 | 14.16228 | -90.04395 | 21710 ft | 363 kts | 304° |
| 2026-04-25 20:40 | 14.17580 | -90.06604 | 21218 ft | 361 kts | 304° |
| 2026-04-25 20:40 | 14.18906 | -90.08772 | 20741 ft | 359 kts | 304° |
| 2026-04-25 20:41 | 14.20205 | -90.10953 | 20235 ft | 358 kts | 301° |
| 2026-04-25 20:41 | 14.21300 | -90.13245 | 19711 ft | 359 kts | 296° |
| 2026-04-25 20:41 | 14.22226 | -90.15659 | 19094 ft | 362 kts | 292° |
| 2026-04-25 20:41 | 14.23065 | -90.18115 | 18534 ft | 362 kts | 291° |
| 2026-04-25 20:42 | 14.23847 | -90.20531 | 18154 ft | 357 kts | 290° |
| 2026-04-25 20:42 | 14.24623 | -90.22959 | 17703 ft | 355 kts | 291° |
| 2026-04-25 20:42 | 14.25392 | -90.25356 | 17217 ft | 353 kts | 291° |
| 2026-04-25 20:42 | 14.26179 | -90.27770 | 16763 ft | 352 kts | 291° |
| 2026-04-25 20:43 | 14.26965 | -90.30151 | 16290 ft | 351 kts | 291° |
| 2026-04-25 20:43 | 14.27753 | -90.32526 | 15794 ft | 350 kts | 291° |
| 2026-04-25 20:43 | 14.28607 | -90.34850 | 15331 ft | 346 kts | 297° |
| 2026-04-25 20:43 | 14.29872 | -90.36899 | 14858 ft | 339 kts | 316° |
| 2026-04-25 20:44 | 14.31771 | -90.38238 | 14433 ft | 331 kts | 339° |
| 2026-04-25 20:44 | 14.34002 | -90.38771 | 14023 ft | 324 kts | 356° |
| 2026-04-25 20:44 | 14.36258 | -90.38834 | 13596 ft | 321 kts | 0° |
| 2026-04-25 20:44 | 14.38483 | -90.38837 | 13168 ft | 319 kts | 0° |
| 2026-04-25 20:45 | 14.40718 | -90.38847 | 12734 ft | 317 kts | 0° |
| 2026-04-25 20:45 | 14.42923 | -90.38864 | 12312 ft | 315 kts | 0° |
| 2026-04-25 20:45 | 14.45104 | -90.38882 | 11888 ft | 313 kts | 0° |
| 2026-04-25 20:45 | 14.47270 | -90.38872 | 11477 ft | 311 kts | 2° |
| 2026-04-25 20:46 | 14.49434 | -90.38751 | 11057 ft | 309 kts | 5° |
| 2026-04-25 20:46 | 14.51589 | -90.38569 | 10622 ft | 308 kts | 6° |
| 2026-04-25 20:46 | 14.53706 | -90.38383 | 10273 ft | 302 kts | 6° |
| 2026-04-25 20:46 | 14.55786 | -90.38216 | 10115 ft | 291 kts | 5° |
| 2026-04-25 20:47 | 14.57776 | -90.38068 | 9865 ft | 284 kts | 5° |
| 2026-04-25 20:47 | 14.59746 | -90.37926 | 9463 ft | 283 kts | 5° |
| 2026-04-25 20:47 | 14.61721 | -90.37784 | 9131 ft | 280 kts | 5° |
| 2026-04-25 20:47 | 14.63635 | -90.37646 | 8991 ft | 269 kts | 5° |
| 2026-04-25 20:48 | 14.65464 | -90.37515 | 8914 ft | 257 kts | 5° |
| 2026-04-25 20:48 | 14.67225 | -90.37393 | 8804 ft | 246 kts | 4° |
| 2026-04-25 20:48 | 14.68917 | -90.37452 | 8618 ft | 240 kts | 350° |
| 2026-04-25 20:48 | 14.70463 | -90.38029 | 8534 ft | 229 kts | 330° |
| 2026-04-25 20:49 | 14.71714 | -90.38975 | 8471 ft | 216 kts | 319° |
| 2026-04-25 20:49 | 14.72687 | -90.40087 | 8416 ft | 205 kts | 304° |
| 2026-04-25 20:49 | 14.73298 | -90.41409 | 8354 ft | 205 kts | 288° |
| 2026-04-25 20:49 | 14.73587 | -90.42867 | 8297 ft | 205 kts | 276° |
| 2026-04-25 20:50 | 14.73564 | -90.44325 | 8246 ft | 206 kts | 258° |
| 2026-04-25 20:50 | 14.72939 | -90.45675 | 8026 ft | 210 kts | 232° |
| 2026-04-25 20:50 | 14.71940 | -90.46774 | 7740 ft | 210 kts | 222° |
| 2026-04-25 20:50 | 14.70811 | -90.47733 | 7442 ft | 210 kts | 216° |
| 2026-04-25 20:51 | 14.69605 | -90.48557 | 7164 ft | 206 kts | 210° |
| 2026-04-25 20:51 | 14.68332 | -90.49231 | 6873 ft | 199 kts | 205° |
| 2026-04-25 20:51 | 14.67107 | -90.49757 | 6604 ft | 184 kts | 201° |
| 2026-04-25 20:51 | 14.65948 | -90.50206 | 6350 ft | 171 kts | 200° |
| 2026-04-25 20:52 | 14.64875 | -90.50597 | 6139 ft | 155 kts | 200° |
| 2026-04-25 20:52 | 14.64212 | -90.50831 | 5984 ft | 150 kts | 200° |
| 2026-04-25 20:52 | 14.62888 | -90.51286 | 5724 ft | 147 kts | 199° |
| 2026-04-25 20:52 | 14.61921 | -90.51595 | 5572 ft | 148 kts | 195° |
| 2026-04-25 20:53 | 14.60908 | -90.51920 | 5348 ft | 151 kts | 198° |
| 2026-04-25 20:53 | 14.59905 | -90.52236 | 5097 ft | 149 kts | 197° |
| 2026-04-25 20:53 | 14.58928 | -90.52554 | 4922 ft | 144 kts | 198° |
| 2026-04-25 20:53 | 14.58111 | -90.52818 | 4895 ft | 93 kts | 197° |
| 2026-04-25 20:54 | 14.57682 | -90.52954 | 4892 ft | 47 kts | 199° |
| 2026-04-25 20:54 | 14.57470 | -90.53030 | 4893 ft | 20 kts | 210° |
| 2026-04-25 20:54 | 14.57513 | -90.53076 | 4893 ft | 12 kts | 16° |
| 2026-04-25 20:54 | 14.57602 | -90.53049 | 4893 ft | 14 kts | 16° |
| 2026-04-25 20:55 | 14.57706 | -90.53018 | 4892 ft | 16 kts | 18° |
| 2026-04-25 20:55 | 14.57822 | -90.52979 | 4892 ft | 18 kts | 17° |
| 2026-04-25 20:55 | 14.57947 | -90.52939 | 4892 ft | 15 kts | 18° |
| 2026-04-25 20:55 | 14.58051 | -90.52898 | 4893 ft | 15 kts | 11° |
| 2026-04-25 20:56 | 14.58189 | -90.52856 | 4896 ft | 29 kts | 15° |
| 2026-04-25 20:56 | 14.58393 | -90.52797 | 4901 ft | 28 kts | 14° |
| 2026-04-25 20:56 | 14.58568 | -90.52743 | 4907 ft | 25 kts | 18° |
| 2026-04-25 20:56 | 14.58695 | -90.52759 | 4910 ft | 19 kts | 292° |
| 2026-04-25 20:57 | 14.58744 | -90.52878 | 4911 ft | 11 kts | 293° |
| 2026-04-25 20:57 | 14.58764 | -90.52934 | 4912 ft | 0 kts | 288° |
| 2026-04-25 20:57 | 14.58767 | -90.52942 | 4912 ft | 0 kts | 289° |